createdAt,value
2022-10-02T00:00:54.956Z,99.99
2022-10-02T00:03:27.353Z,99.99
2022-10-02T00:06:04.079Z,99.99
2022-10-02T00:08:36.525Z,99.99
2022-10-02T00:11:09.410Z,99.99
2022-10-02T00:13:41.770Z,99.99
2022-10-02T00:16:17.090Z,99.99
2022-10-02T00:18:46.409Z,99.99
2022-10-02T00:21:27.404Z,99.99
2022-10-02T00:23:59.498Z,99.99
2022-10-02T00:26:32.594Z,99.99
2022-10-02T00:29:10.753Z,99.99
2022-10-02T00:31:49.289Z,99.99
2022-10-02T00:34:27.291Z,99.99
2022-10-02T00:37:04.237Z,99.99
2022-10-02T00:39:49.084Z,99.99
2022-10-02T00:42:42.231Z,99.99
2022-10-02T00:45:32.852Z,99.99
2022-10-02T00:48:11.258Z,99.99
2022-10-02T00:50:47.944Z,99.99
2022-10-02T00:53:27.231Z,99.99
2022-10-02T00:56:13.887Z,99.99
2022-10-02T00:58:59.123Z,99.99
2022-10-02T01:01:36.581Z,99.99
2022-10-02T01:04:09.969Z,99.99
2022-10-02T01:06:38.366Z,99.99
2022-10-02T01:09:06.611Z,99.99
2022-10-02T01:11:36.788Z,99.99
2022-10-02T01:14:05.193Z,99.99
2022-10-02T01:16:34.249Z,99.99
2022-10-02T01:19:02.589Z,99.99
2022-10-02T01:21:37.574Z,99.99
2022-10-02T01:24:14.156Z,99.99
2022-10-02T01:26:43.599Z,99.99
2022-10-02T01:29:11.525Z,99.99
2022-10-02T01:31:39.880Z,99.99
2022-10-02T01:34:08.104Z,99.99
2022-10-02T01:36:37.065Z,99.99
2022-10-02T01:39:05.696Z,99.99
2022-10-02T01:41:39.519Z,99.99
2022-10-02T01:44:08.887Z,99.99
2022-10-02T01:46:42.511Z,99.99
2022-10-02T01:49:25.566Z,99.99
2022-10-02T01:52:12.812Z,99.99
2022-10-02T01:54:53.032Z,99.99
2022-10-02T01:57:32.288Z,99.99
2022-10-02T02:00:09.014Z,99.99
2022-10-02T02:02:55.753Z,99.99
2022-10-02T02:05:33.209Z,99.99
2022-10-02T02:08:09.190Z,99.99
2022-10-02T02:10:46.609Z,99.99
2022-10-02T02:13:21.383Z,99.99
2022-10-02T02:15:55.919Z,99.99
2022-10-02T02:18:30.527Z,99.99
2022-10-02T02:21:01.951Z,99.99
2022-10-02T02:23:35.415Z,99.99
2022-10-02T02:26:07.948Z,99.99
2022-10-02T02:28:37.432Z,99.99
2022-10-02T02:31:09.212Z,99.99
2022-10-02T02:33:41.654Z,99.99
2022-10-02T02:36:12.825Z,99.99
2022-10-02T02:38:45.408Z,99.99
2022-10-02T02:41:16.185Z,99.99
2022-10-02T02:43:47.862Z,99.99
2022-10-02T02:46:24.871Z,99.99
2022-10-02T02:48:59.662Z,99.99
2022-10-02T02:51:32.214Z,99.99
2022-10-02T02:54:04.734Z,99.99
2022-10-02T02:56:34.335Z,99.99
2022-10-02T02:59:07.906Z,99.99
2022-10-02T03:01:37.366Z,99.99
2022-10-02T03:04:05.764Z,99.99
2022-10-02T03:06:37.907Z,99.99
2022-10-02T03:09:08.149Z,99.99
2022-10-02T03:11:53.658Z,99.99
2022-10-02T03:14:40.575Z,99.99
2022-10-02T03:17:22.360Z,99.99
2022-10-02T03:19:54.161Z,99.99
2022-10-02T03:22:29.261Z,99.99
2022-10-02T03:25:04.262Z,99.99
2022-10-02T03:27:37.804Z,99.99
2022-10-02T03:30:08.215Z,99.99
2022-10-02T03:32:41.886Z,99.99
2022-10-02T03:35:13.242Z,99.99
2022-10-02T03:37:43.887Z,99.99
2022-10-02T03:40:12.614Z,99.99
2022-10-02T03:42:41.178Z,99.99
2022-10-02T03:45:09.914Z,99.99
2022-10-02T03:47:39.152Z,99.99
2022-10-02T03:50:07.950Z,99.99
2022-10-02T03:52:36.386Z,99.99
2022-10-02T03:55:11.487Z,99.99
2022-10-02T03:57:39.449Z,99.99
2022-10-02T04:00:13.129Z,99.99
2022-10-02T04:02:46.062Z,99.99
2022-10-02T04:05:23.110Z,99.99
2022-10-02T04:07:55.881Z,99.99
2022-10-02T04:10:37.828Z,99.99
2022-10-02T04:13:12.283Z,99.99
2022-10-02T04:15:54.587Z,99.99
2022-10-02T04:18:28.561Z,99.99
2022-10-02T04:21:00.748Z,99.99
2022-10-02T04:23:32.677Z,99.99
2022-10-02T04:26:04.922Z,99.99
2022-10-02T04:28:39.198Z,99.99
2022-10-02T04:31:12.552Z,99.99
2022-10-02T04:33:42.274Z,99.99
2022-10-02T04:36:25.307Z,99.99
2022-10-02T04:39:10.926Z,99.99
2022-10-02T04:41:51.359Z,99.99
2022-10-02T04:44:31.614Z,99.99
2022-10-02T04:47:20.436Z,99.99
2022-10-02T04:50:14.511Z,99.99
2022-10-02T04:53:12.194Z,99.99
2022-10-02T04:55:57.313Z,99.99
2022-10-02T04:59:01.709Z,99.99
2022-10-02T05:01:44.305Z,99.99
2022-10-02T05:04:30.843Z,99.99
2022-10-02T05:07:23.423Z,99.99
2022-10-02T05:10:01.997Z,99.99
2022-10-02T05:12:45.988Z,99.99
2022-10-02T05:15:59.772Z,99.99
2022-10-02T05:18:58.889Z,99.99
2022-10-02T05:21:42.708Z,99.99
2022-10-02T05:24:23.435Z,99.99
2022-10-02T05:27:07.515Z,99.99
2022-10-02T05:29:59.908Z,99.99
2022-10-02T05:32:47.872Z,99.99
2022-10-02T05:35:28.553Z,99.99
2022-10-02T05:38:08.248Z,99.99
2022-10-02T05:40:42.583Z,99.99
2022-10-02T05:43:14.157Z,99.99
2022-10-02T05:45:47.853Z,99.99
2022-10-02T05:48:19.911Z,99.99
2022-10-02T05:50:52.503Z,99.99
2022-10-02T05:53:31.346Z,99.99
2022-10-02T05:56:06.423Z,99.99
2022-10-02T05:58:38.980Z,99.99
2022-10-02T06:01:12.414Z,99.99
2022-10-02T06:03:45.147Z,99.99
2022-10-02T06:06:17.984Z,99.99
2022-10-02T06:08:50.929Z,99.99
2022-10-02T06:11:24.396Z,99.99
2022-10-02T06:13:57.114Z,99.99
2022-10-02T06:16:31.224Z,99.99
2022-10-02T06:19:05.807Z,99.99
2022-10-02T06:21:39.342Z,99.99
2022-10-02T06:24:17.820Z,99.99
2022-10-02T06:26:52.031Z,99.99
2022-10-02T06:29:27.333Z,99.99
2022-10-02T06:32:06.032Z,99.99
2022-10-02T06:34:34.080Z,99.99
2022-10-02T06:37:25.710Z,99.99
2022-10-02T06:40:31.044Z,99.99
2022-10-02T06:43:07.294Z,99.99
2022-10-02T06:45:46.224Z,99.99
2022-10-02T06:48:25.590Z,99.99
2022-10-02T06:51:01.546Z,99.99
2022-10-02T06:53:53.556Z,99.99
2022-10-02T06:56:37.865Z,99.99
2022-10-02T06:59:18.330Z,99.99
2022-10-02T07:01:57.517Z,99.99
2022-10-02T07:04:52.072Z,99.99
2022-10-02T07:07:30.913Z,99.99
2022-10-02T07:10:11.113Z,99.99
2022-10-02T07:12:55.005Z,99.99
2022-10-02T07:15:41.804Z,99.99
2022-10-02T07:18:19.724Z,99.99
2022-10-02T07:20:57.938Z,99.99
2022-10-02T07:23:40.219Z,99.99
2022-10-02T07:26:22.186Z,99.99
2022-10-02T07:28:58.077Z,99.99
2022-10-02T07:31:38.987Z,99.99
2022-10-02T07:34:18.984Z,99.99
2022-10-02T07:36:50.155Z,99.99
2022-10-02T07:39:33.160Z,99.99
2022-10-02T07:42:25.931Z,99.99
2022-10-02T07:45:21.011Z,99.99
2022-10-02T07:48:07.249Z,99.99
2022-10-02T07:50:42.296Z,99.99
2022-10-02T07:53:18.894Z,99.99
2022-10-02T07:55:53.226Z,99.99
2022-10-02T07:58:31.933Z,99.99
2022-10-02T08:01:02.589Z,99.99
2022-10-02T08:03:36.507Z,99.99
2022-10-02T08:06:06.893Z,99.99
2022-10-02T08:08:43.960Z,99.99
2022-10-02T08:11:17.074Z,99.99
2022-10-02T08:13:48.698Z,99.99
2022-10-02T08:16:22.659Z,99.99
2022-10-02T08:18:58.123Z,99.99
2022-10-02T08:21:27.275Z,99.99
2022-10-02T08:24:00.124Z,99.99
2022-10-02T08:26:35.371Z,99.99
2022-10-02T08:29:07.939Z,99.99
2022-10-02T08:31:36.079Z,99.72
2022-10-02T08:34:14.953Z,99.31
2022-10-02T08:36:58.395Z,99.63
2022-10-02T08:40:03.328Z,98.64
2022-10-02T08:43:08.513Z,97.34
2022-10-02T08:46:08.789Z,97.79
2022-10-02T08:49:18.602Z,97.88
2022-10-02T08:52:12.014Z,96.49
2022-10-02T08:55:07.007Z,97.26
2022-10-02T08:58:18.794Z,96.29
2022-10-02T09:00:55.697Z,95.36
2022-10-02T09:04:10.629Z,95.55
2022-10-02T09:07:20.927Z,96.48
2022-10-02T09:10:27.004Z,96.26
2022-10-02T09:13:30.644Z,96.69
2022-10-02T09:16:10.422Z,96.84
2022-10-02T09:18:53.792Z,96.30
2022-10-02T09:21:35.776Z,96.53
2022-10-02T09:24:46.676Z,96.02
2022-10-02T09:28:00.741Z,96.48
2022-10-02T09:30:52.120Z,96.26
2022-10-02T09:33:53.747Z,96.25
2022-10-02T09:37:28.295Z,95.72
2022-10-02T09:40:33.054Z,94.70
2022-10-02T09:43:31.305Z,95.07
2022-10-02T09:46:38.345Z,94.58
2022-10-02T09:49:48.987Z,94.25
2022-10-02T09:52:50.757Z,94.58
2022-10-02T09:55:51.334Z,94.85
2022-10-02T09:58:57.097Z,93.10
2022-10-02T10:01:54.611Z,93.35
2022-10-02T10:05:04.360Z,93.49
2022-10-02T10:08:23.665Z,92.72
2022-10-02T10:11:30.529Z,90.89
2022-10-02T10:14:35.965Z,90.48
2022-10-02T10:17:48.321Z,90.80
2022-10-02T10:20:37.985Z,89.94
2022-10-02T10:23:24.695Z,89.46
2022-10-02T10:26:16.664Z,87.40
2022-10-02T10:29:22.026Z,88.13
2022-10-02T10:32:33.892Z,87.99
2022-10-02T10:35:34.385Z,88.01
2022-10-02T10:38:40.258Z,88.15
2022-10-02T10:41:36.320Z,87.67
2022-10-02T10:44:33.756Z,87.45
2022-10-02T10:47:21.068Z,87.60
2022-10-02T10:50:15.363Z,86.91
2022-10-02T10:53:06.622Z,87.58
2022-10-02T10:55:49.741Z,88.97
2022-10-02T10:58:25.253Z,90.04
2022-10-02T11:01:08.255Z,90.17
2022-10-02T11:04:00.156Z,90.60
2022-10-02T11:06:50.540Z,89.59
2022-10-02T11:09:37.634Z,90.17
2022-10-02T11:12:21.691Z,90.62
2022-10-02T11:15:06.090Z,89.82
2022-10-02T11:18:17.104Z,89.43
2022-10-02T11:21:05.118Z,89.07
2022-10-02T11:23:54.052Z,87.93
2022-10-02T11:26:32.365Z,87.36
2022-10-02T11:29:49.488Z,86.36
2022-10-02T11:32:50.036Z,84.77
2022-10-02T11:35:31.073Z,86.08
2022-10-02T11:38:43.482Z,86.85
2022-10-02T11:41:51.126Z,89.99
2022-10-02T11:44:32.992Z,90.08
2022-10-02T11:47:44.531Z,90.03
2022-10-02T11:50:38.939Z,89.34
2022-10-02T11:53:17.207Z,89.21
2022-10-02T11:55:58.838Z,88.88
2022-10-02T11:58:41.856Z,85.48
2022-10-02T12:01:17.530Z,85.51
2022-10-02T12:03:55.377Z,84.40
2022-10-02T12:06:49.032Z,81.45
2022-10-02T12:09:29.979Z,81.93
2022-10-02T12:12:13.685Z,81.74
2022-10-02T12:14:53.167Z,81.75
2022-10-02T12:17:53.316Z,81.79
2022-10-02T12:20:49.460Z,80.76
2022-10-02T12:23:48.769Z,80.10
2022-10-02T12:26:56.597Z,79.35
2022-10-02T12:29:56.514Z,79.10
2022-10-02T12:32:49.866Z,78.24
2022-10-02T12:35:33.283Z,77.10
2022-10-02T12:38:12.486Z,77.62
2022-10-02T12:40:52.626Z,78.81
2022-10-02T12:43:55.575Z,79.79
2022-10-02T12:46:49.730Z,79.33
2022-10-02T12:49:30.941Z,76.11
2022-10-02T12:52:15.685Z,76.01
2022-10-02T12:55:12.485Z,75.72
2022-10-02T12:58:05.382Z,75.38
2022-10-02T13:00:49.995Z,75.08
2022-10-02T13:03:44.191Z,70.01
2022-10-02T13:06:48.731Z,68.19
2022-10-02T13:09:29.689Z,65.90
2022-10-02T13:12:17.945Z,65.95
2022-10-02T13:15:18.431Z,67.15
2022-10-02T13:17:53.328Z,71.60
2022-10-02T13:20:37.896Z,69.23
2022-10-02T13:23:15.231Z,66.79
2022-10-02T13:25:59.843Z,66.35
2022-10-02T13:28:44.103Z,70.59
2022-10-02T13:31:24.050Z,68.89
2022-10-02T13:34:08.184Z,65.14
2022-10-02T13:36:52.656Z,62.34
2022-10-02T13:39:34.912Z,64.54
2022-10-02T13:42:21.244Z,65.39
2022-10-02T13:44:59.146Z,68.58
2022-10-02T13:47:40.481Z,71.91
2022-10-02T13:50:42.482Z,76.43
2022-10-02T13:53:31.612Z,78.87
2022-10-02T13:56:14.761Z,78.92
2022-10-02T13:59:03.634Z,76.99
2022-10-02T14:01:41.368Z,78.59
2022-10-02T14:04:24.846Z,79.45
2022-10-02T14:07:01.481Z,80.58
2022-10-02T14:09:45.606Z,80.82
2022-10-02T14:12:27.686Z,73.77
2022-10-02T14:15:13.418Z,71.12
2022-10-02T14:17:52.118Z,69.66
2022-10-02T14:20:36.135Z,66.04
2022-10-02T14:23:31.277Z,66.03
2022-10-02T14:26:11.916Z,66.36
2022-10-02T14:29:09.476Z,66.36
2022-10-02T14:32:08.755Z,70.00
2022-10-02T14:35:19.134Z,75.45
2022-10-02T14:38:05.057Z,77.43
2022-10-02T14:40:47.068Z,77.77
2022-10-02T14:43:33.453Z,77.58
2022-10-02T14:46:26.320Z,78.82
2022-10-02T14:49:10.912Z,77.95
2022-10-02T14:51:54.925Z,77.50
2022-10-02T14:54:58.225Z,76.32
2022-10-02T14:57:44.196Z,76.19
2022-10-02T15:00:22.178Z,74.07
2022-10-02T15:03:25.351Z,74.31
2022-10-02T15:06:21.909Z,74.32
2022-10-02T15:08:54.691Z,75.09
2022-10-02T15:11:45.759Z,74.74
2022-10-02T15:14:18.694Z,76.56
2022-10-02T15:17:08.527Z,76.35
2022-10-02T15:19:40.898Z,76.55
2022-10-02T15:22:19.639Z,76.58
2022-10-02T15:24:50.884Z,78.03
2022-10-02T15:27:24.666Z,78.88
2022-10-02T15:30:15.326Z,81.41
2022-10-02T15:32:56.483Z,83.57
2022-10-02T15:35:41.819Z,82.92
2022-10-02T15:38:37.834Z,81.21
2022-10-02T15:41:29.639Z,79.58
2022-10-02T15:44:09.477Z,76.65
2022-10-02T15:46:49.656Z,74.16
2022-10-02T15:49:32.092Z,73.08
2022-10-02T15:52:06.977Z,70.08
2022-10-02T15:54:53.724Z,71.24
2022-10-02T15:57:42.093Z,69.71
2022-10-02T16:00:13.601Z,70.70
2022-10-02T16:03:03.756Z,72.32
2022-10-02T16:05:53.476Z,73.05
2022-10-02T16:08:57.713Z,77.38
2022-10-02T16:11:39.480Z,79.87
2022-10-02T16:14:13.856Z,81.12
2022-10-02T16:17:24.318Z,81.83
2022-10-02T16:20:13.955Z,82.46
2022-10-02T16:22:59.474Z,82.90
2022-10-02T16:25:39.028Z,83.42
2022-10-02T16:28:17.565Z,84.16
2022-10-02T16:31:04.543Z,84.35
2022-10-02T16:33:43.362Z,84.01
2022-10-02T16:36:30.315Z,83.19
2022-10-02T16:39:25.094Z,82.96
2022-10-02T16:42:03.113Z,83.39
2022-10-02T16:44:48.371Z,83.15
2022-10-02T16:47:26.071Z,83.42
2022-10-02T16:50:00.227Z,84.03
2022-10-02T16:52:34.634Z,83.98
2022-10-02T16:55:14.493Z,83.69
2022-10-02T16:57:50.966Z,83.69
2022-10-02T17:00:25.103Z,84.14
2022-10-02T17:02:57.141Z,84.41
2022-10-02T17:05:31.305Z,84.99
2022-10-02T17:08:06.567Z,85.26
2022-10-02T17:11:26.443Z,85.97
2022-10-02T17:14:13.154Z,86.19
2022-10-02T17:16:48.789Z,86.09
2022-10-02T17:19:27.162Z,86.65
2022-10-02T17:21:59.581Z,86.59
2022-10-02T17:24:41.549Z,86.88
2022-10-02T17:27:31.064Z,86.50
2022-10-02T17:30:08.222Z,86.59
2022-10-02T17:32:40.526Z,86.75
2022-10-02T17:35:16.594Z,86.61
2022-10-02T17:38:12.547Z,86.80
2022-10-02T17:40:50.897Z,86.60
2022-10-02T17:43:31.382Z,86.29
2022-10-02T17:46:21.026Z,86.27
2022-10-02T17:48:57.626Z,86.77
2022-10-02T17:51:53.061Z,86.19
2022-10-02T17:55:06.776Z,86.80
2022-10-02T17:57:44.378Z,87.23
2022-10-02T18:00:21.292Z,88.07
2022-10-02T18:03:19.437Z,88.25
2022-10-02T18:05:54.539Z,87.76
2022-10-02T18:09:10.721Z,87.49
2022-10-02T18:12:03.771Z,88.34
2022-10-02T18:15:09.264Z,88.90
2022-10-02T18:17:52.960Z,88.83
2022-10-02T18:20:30.469Z,87.96
2022-10-02T18:23:11.676Z,87.13
2022-10-02T18:25:53.604Z,87.71
2022-10-02T18:28:42.661Z,87.65
2022-10-02T18:31:51.051Z,88.13
2022-10-02T18:34:31.245Z,88.39
2022-10-02T18:37:13.247Z,88.72
2022-10-02T18:39:45.014Z,88.93
2022-10-02T18:42:39.424Z,88.41
2022-10-02T18:45:25.773Z,88.61
2022-10-02T18:48:08.154Z,88.48
2022-10-02T18:50:50.448Z,88.11
2022-10-02T18:53:42.898Z,88.59
2022-10-02T18:56:12.248Z,88.54
2022-10-02T18:58:54.499Z,88.55
2022-10-02T19:01:44.198Z,88.63
2022-10-02T19:04:40.648Z,88.65
2022-10-02T19:07:16.160Z,88.76
2022-10-02T19:09:44.490Z,88.63
2022-10-02T19:12:18.633Z,88.41
2022-10-02T19:14:48.014Z,88.16
2022-10-02T19:17:17.998Z,87.86
2022-10-02T19:19:46.040Z,87.40
2022-10-02T19:22:21.759Z,87.35
2022-10-02T19:24:52.679Z,87.99
2022-10-02T19:27:26.628Z,87.69
2022-10-02T19:29:58.587Z,87.61
2022-10-02T19:32:30.086Z,87.90
2022-10-02T19:35:03.556Z,88.79
2022-10-02T19:37:32.771Z,88.90
2022-10-02T19:40:03.104Z,89.21
2022-10-02T19:42:39.341Z,88.96
2022-10-02T19:45:24.496Z,89.25
2022-10-02T19:47:56.734Z,89.04
2022-10-02T19:50:27.950Z,88.43
2022-10-02T19:53:00.990Z,88.41
2022-10-02T19:55:33.969Z,88.31
2022-10-02T19:58:07.803Z,88.56
2022-10-02T20:00:38.999Z,88.56
2022-10-02T20:03:11.171Z,89.03
2022-10-02T20:05:39.291Z,89.30
2022-10-02T20:08:14.237Z,89.90
2022-10-02T20:10:47.369Z,90.53
2022-10-02T20:13:21.419Z,90.93
2022-10-02T20:16:12.327Z,91.60
2022-10-02T20:18:40.577Z,91.25
2022-10-02T20:21:15.794Z,91.23
2022-10-02T20:23:50.519Z,91.60
2022-10-02T20:26:22.265Z,91.78
2022-10-02T20:28:54.159Z,91.70
2022-10-02T20:31:31.133Z,91.66
2022-10-02T20:34:02.653Z,92.32
2022-10-02T20:36:39.105Z,92.66
2022-10-02T20:39:09.867Z,92.61
2022-10-02T20:41:54.319Z,92.49
2022-10-02T20:44:22.544Z,93.04
2022-10-02T20:47:23.272Z,93.41
2022-10-02T20:50:21.133Z,93.95
2022-10-02T20:53:16.448Z,94.21
2022-10-02T20:55:52.810Z,93.89
2022-10-02T20:58:47.960Z,93.90
2022-10-02T21:01:19.302Z,94.44
2022-10-02T21:04:16.137Z,94.42
2022-10-02T21:07:05.875Z,94.63
2022-10-02T21:10:11.690Z,94.83
2022-10-02T21:12:57.271Z,94.93
2022-10-02T21:15:47.860Z,95.44
2022-10-02T21:18:40.216Z,95.42
2022-10-02T21:21:49.342Z,95.58
2022-10-02T21:25:00.954Z,95.78
2022-10-02T21:28:01.370Z,95.81
2022-10-02T21:30:39.935Z,95.90
2022-10-02T21:33:15.554Z,95.96
2022-10-02T21:35:57.451Z,96.65
2022-10-02T21:38:58.243Z,96.57
2022-10-02T21:41:52.145Z,96.49
2022-10-02T21:45:00.383Z,96.51
2022-10-02T21:48:20.960Z,96.69
2022-10-02T21:51:23.880Z,96.94
2022-10-02T21:54:11.626Z,97.13
2022-10-02T21:57:11.812Z,97.49
2022-10-02T22:00:11.114Z,97.47
2022-10-02T22:03:23.359Z,97.40
2022-10-02T22:06:22.214Z,97.72
2022-10-02T22:09:07.379Z,97.61
2022-10-02T22:11:45.992Z,97.81
2022-10-02T22:14:23.482Z,97.77
2022-10-02T22:16:59.677Z,97.82
2022-10-02T22:19:41.943Z,98.22
2022-10-02T22:22:22.741Z,98.08
2022-10-02T22:25:05.165Z,98.32
2022-10-02T22:28:03.857Z,98.51
2022-10-02T22:30:41.153Z,98.69
2022-10-02T22:33:22.740Z,98.89
2022-10-02T22:36:25.418Z,99.00
2022-10-02T22:39:02.263Z,98.95
2022-10-02T22:41:36.110Z,99.29
2022-10-02T22:44:10.018Z,99.30
2022-10-02T22:46:48.066Z,99.39
2022-10-02T22:49:25.303Z,99.61
2022-10-02T22:52:01.824Z,99.57
2022-10-02T22:54:40.874Z,99.76
2022-10-02T22:57:15.469Z,99.74
2022-10-02T22:59:47.592Z,99.96
2022-10-02T23:02:23.988Z,99.85
2022-10-02T23:04:57.280Z,99.71
2022-10-02T23:07:29.764Z,99.84
2022-10-02T23:10:01.444Z,99.82
2022-10-02T23:12:38.797Z,99.99
2022-10-02T23:15:32.422Z,99.88
2022-10-02T23:18:05.968Z,99.99
2022-10-02T23:20:39.052Z,99.99
2022-10-02T23:23:15.862Z,99.99
2022-10-02T23:25:47.137Z,99.99
2022-10-02T23:28:23.951Z,99.99
2022-10-02T23:31:02.895Z,99.99
2022-10-02T23:33:42.314Z,99.99
2022-10-02T23:36:24.199Z,99.99
2022-10-02T23:38:59.221Z,99.99
2022-10-02T23:41:40.518Z,99.99
2022-10-02T23:44:23.099Z,99.99
2022-10-02T23:47:05.133Z,99.99
2022-10-02T23:49:38.947Z,99.99
2022-10-02T23:52:31.275Z,99.99
2022-10-02T23:55:09.800Z,99.99
2022-10-02T23:57:51.811Z,99.99
